createdAt,value
2019-01-30T00:02:28.806Z,12.20
2019-01-30T00:04:59.916Z,12.40
2019-01-30T00:07:30.372Z,12.30
2019-01-30T00:10:00.841Z,11.87
2019-01-30T00:12:31.272Z,12.13
2019-01-30T00:15:02.185Z,12.23
2019-01-30T00:17:32.658Z,13.73
2019-01-30T00:20:03.104Z,12.80
2019-01-30T00:22:33.819Z,12.33
2019-01-30T00:25:04.618Z,12.37
2019-01-30T00:27:35.130Z,12.10
2019-01-30T00:30:08.074Z,12.93
2019-01-30T00:32:38.599Z,13.23
2019-01-30T00:35:10.145Z,13.17
2019-01-30T00:37:40.853Z,14.20
2019-01-30T00:40:12.797Z,13.70
2019-01-30T00:42:43.581Z,13.40
2019-01-30T00:45:14.988Z,14.00
2019-01-30T00:47:46.995Z,13.20
2019-01-30T00:50:17.528Z,13.70
2019-01-30T00:52:48.001Z,13.23
2019-01-30T00:55:18.611Z,14.50
2019-01-30T00:57:49.475Z,14.40
2019-01-30T01:00:22.125Z,14.47
2019-01-30T01:02:52.787Z,14.30
2019-01-30T01:05:23.283Z,14.70
2019-01-30T01:07:54.273Z,14.27
2019-01-30T01:10:24.927Z,15.23
2019-01-30T01:12:55.923Z,16.03
2019-01-30T01:15:26.415Z,15.90
2019-01-30T01:17:56.819Z,15.00
2019-01-30T01:20:27.401Z,16.60
2019-01-30T01:22:57.951Z,14.97
2019-01-30T01:25:28.430Z,14.97
2019-01-30T01:27:58.930Z,16.53
2019-01-30T01:30:29.907Z,15.27
2019-01-30T01:33:00.734Z,15.07
2019-01-30T01:35:31.165Z,15.33
2019-01-30T01:38:02.554Z,14.87
2019-01-30T01:40:32.983Z,15.07
2019-01-30T01:43:03.547Z,15.33
2019-01-30T01:45:34.397Z,15.87
2019-01-30T01:48:04.908Z,14.23
2019-01-30T01:50:35.794Z,15.70
2019-01-30T01:53:06.664Z,14.37
2019-01-30T01:55:37.163Z,15.00
2019-01-30T01:58:07.591Z,14.37
2019-01-30T02:00:38.456Z,14.27
2019-01-30T02:03:08.970Z,15.10
2019-01-30T02:05:40.158Z,14.90
2019-01-30T02:08:10.870Z,16.23
2019-01-30T02:10:41.595Z,15.80
2019-01-30T02:13:12.515Z,15.13
2019-01-30T02:15:43.017Z,15.40
2019-01-30T02:18:13.671Z,15.43
2019-01-30T02:20:44.511Z,15.43
2019-01-30T02:23:15.107Z,15.13
2019-01-30T02:25:45.556Z,16.00
2019-01-30T02:28:16.076Z,15.90
2019-01-30T02:30:47.915Z,15.33
2019-01-30T02:33:18.624Z,14.73
2019-01-30T02:35:49.495Z,16.37
2019-01-30T02:38:19.969Z,16.57
2019-01-30T02:40:50.410Z,15.53
2019-01-30T02:43:22.027Z,15.40
2019-01-30T02:45:52.456Z,15.80
2019-01-30T02:48:22.974Z,15.73
2019-01-30T02:50:53.478Z,16.43
2019-01-30T02:53:24.385Z,16.23
2019-01-30T02:55:55.152Z,17.57
2019-01-30T02:58:25.521Z,16.20
2019-01-30T03:00:59.500Z,15.60
2019-01-30T03:03:28.557Z,15.90
2019-01-30T03:05:58.987Z,16.07
2019-01-30T03:08:29.470Z,16.60
2019-01-30T03:10:59.934Z,16.30
2019-01-30T03:13:30.470Z,17.13
2019-01-30T03:16:00.973Z,16.33
2019-01-30T03:18:31.493Z,18.10
2019-01-30T03:21:02.031Z,16.87
2019-01-30T03:23:32.511Z,16.70
2019-01-30T03:26:02.912Z,16.60
2019-01-30T03:28:33.255Z,17.03
2019-01-30T03:31:16.734Z,17.03
2019-01-30T03:33:35.910Z,15.43
2019-01-30T03:36:06.449Z,17.17
2019-01-30T03:38:36.867Z,17.07
2019-01-30T03:41:07.266Z,16.67
2019-01-30T03:43:37.571Z,17.83
2019-01-30T03:46:10.216Z,16.10
2019-01-30T03:48:40.275Z,16.70
2019-01-30T03:51:11.025Z,16.43
2019-01-30T03:53:41.407Z,17.97
2019-01-30T03:56:11.873Z,17.13
2019-01-30T03:58:42.179Z,15.77
2019-01-30T04:01:12.747Z,16.80
2019-01-30T04:03:44.014Z,17.40
2019-01-30T04:06:14.430Z,16.47
2019-01-30T04:08:44.820Z,17.27
2019-01-30T04:11:15.155Z,17.03
2019-01-30T04:13:45.894Z,17.23
2019-01-30T04:16:16.381Z,16.90
2019-01-30T04:18:46.734Z,16.50
2019-01-30T04:21:17.271Z,17.87
2019-01-30T04:23:47.622Z,18.20
2019-01-30T04:26:18.107Z,16.57
2019-01-30T04:28:48.567Z,18.30
2019-01-30T04:31:19.105Z,17.50
2019-01-30T04:37:00.596Z,17.03
2019-01-30T04:39:30.983Z,16.80
2019-01-30T04:42:01.384Z,17.17
2019-01-30T04:44:31.804Z,17.07
2019-01-30T04:47:02.627Z,16.60
2019-01-30T04:49:34.781Z,17.70
2019-01-30T04:52:05.107Z,16.73
2019-01-30T04:54:35.650Z,16.00
2019-01-30T04:57:06.511Z,16.23
2019-01-30T04:59:36.633Z,17.13
2019-01-30T05:02:07.020Z,17.53
2019-01-30T05:04:37.235Z,16.53
2019-01-30T05:07:07.456Z,16.13
2019-01-30T05:09:37.949Z,15.70
2019-01-30T05:12:08.325Z,16.43
2019-01-30T05:14:38.545Z,16.00
2019-01-30T05:17:09.268Z,15.70
2019-01-30T05:19:39.486Z,15.97
2019-01-30T05:22:10.059Z,17.47
2019-01-30T05:24:40.600Z,15.93
2019-01-30T05:27:10.927Z,14.70
2019-01-30T05:29:41.067Z,16.33
2019-01-30T05:32:11.416Z,15.50
2019-01-30T05:34:41.542Z,16.30
2019-01-30T05:37:11.881Z,15.90
2019-01-30T05:39:42.100Z,16.00
2019-01-30T05:42:12.505Z,16.10
2019-01-30T05:44:42.854Z,16.00
2019-01-30T05:47:13.491Z,17.03
2019-01-30T05:49:43.771Z,16.77
2019-01-30T05:52:14.171Z,15.67
2019-01-30T05:54:44.369Z,15.93
2019-01-30T05:57:14.892Z,16.37
2019-01-30T05:59:45.051Z,15.87
2019-01-30T06:02:15.880Z,16.40
2019-01-30T06:04:46.287Z,15.87
2019-01-30T06:07:16.523Z,16.00
2019-01-30T06:09:46.657Z,16.17
2019-01-30T06:12:16.998Z,15.50
2019-01-30T06:14:47.241Z,15.73
2019-01-30T06:17:17.512Z,16.07
2019-01-30T06:19:48.134Z,15.50
2019-01-30T06:22:18.377Z,15.73
2019-01-30T06:24:48.596Z,14.13
2019-01-30T06:27:19.689Z,14.83
2019-01-30T06:30:10.698Z,14.83
2019-01-30T06:32:41.333Z,14.27
2019-01-30T06:35:12.096Z,14.27
2019-01-30T06:37:42.462Z,14.23
2019-01-30T06:40:34.204Z,14.07
2019-01-30T06:43:05.114Z,13.93
2019-01-30T06:45:35.718Z,15.37
2019-01-30T06:48:07.531Z,13.60
2019-01-30T06:50:37.841Z,13.80
2019-01-30T06:53:08.504Z,13.93
2019-01-30T06:55:38.718Z,14.30
2019-01-30T06:58:09.080Z,13.80
2019-01-30T07:00:39.388Z,14.20
2019-01-30T07:03:10.100Z,14.47
2019-01-30T07:05:40.557Z,13.30
2019-01-30T07:08:11.008Z,14.10
2019-01-30T07:10:41.586Z,13.63
2019-01-30T07:13:11.867Z,13.87
2019-01-30T07:15:42.178Z,13.13
2019-01-30T07:18:12.944Z,14.47
2019-01-30T07:20:43.468Z,13.30
2019-01-30T07:23:13.851Z,13.07
2019-01-30T07:25:44.382Z,13.60
2019-01-30T07:28:14.680Z,12.30
2019-01-30T07:30:45.030Z,13.67
2019-01-30T07:33:15.250Z,13.63
2019-01-30T07:35:45.828Z,12.53
2019-01-30T07:38:16.195Z,13.20
2019-01-30T07:40:46.484Z,12.73
2019-01-30T07:43:16.690Z,12.20
2019-01-30T07:45:46.996Z,12.57
2019-01-30T07:48:17.241Z,12.30
2019-01-30T07:50:47.662Z,12.60
2019-01-30T07:53:18.159Z,12.50
2019-01-30T07:55:48.465Z,12.40
2019-01-30T07:58:18.608Z,12.53
2019-01-30T08:00:49.074Z,12.63
2019-01-30T08:03:19.566Z,12.80
2019-01-30T08:05:49.788Z,12.50
2019-01-30T08:08:20.065Z,11.63
2019-01-30T08:10:50.735Z,12.73
2019-01-30T08:13:20.944Z,11.90
2019-01-30T08:15:51.171Z,11.67
2019-01-30T08:18:21.487Z,12.17
2019-01-30T08:20:51.709Z,11.80
2019-01-30T08:23:22.490Z,11.23
2019-01-30T08:25:52.966Z,11.77
2019-01-30T08:28:26.339Z,11.57
2019-01-30T08:30:56.901Z,11.23
2019-01-30T08:33:27.258Z,11.70
2019-01-30T08:35:57.665Z,11.27
2019-01-30T08:38:27.950Z,10.97
2019-01-30T08:40:58.325Z,11.20
2019-01-30T08:43:28.602Z,10.20
2019-01-30T08:45:59.270Z,10.77
2019-01-30T08:48:30.289Z,10.40
2019-01-30T08:51:01.327Z,11.37
2019-01-30T08:53:31.812Z,11.00
2019-01-30T08:56:02.704Z,10.50
2019-01-30T08:58:33.000Z,10.07
2019-01-30T09:01:03.223Z,10.87
2019-01-30T09:03:33.449Z,10.37
2019-01-30T09:06:03.832Z,10.67
2019-01-30T09:08:34.206Z,11.07
2019-01-30T09:11:05.131Z,10.60
2019-01-30T09:13:35.634Z,10.63
2019-01-30T09:16:06.758Z,10.53
2019-01-30T09:18:37.254Z,10.47
2019-01-30T09:21:08.090Z,10.77
2019-01-30T09:23:38.234Z,11.47
2019-01-30T09:26:08.560Z,10.60
2019-01-30T09:28:39.454Z,11.03
2019-01-30T09:31:09.808Z,10.50
2019-01-30T09:33:40.177Z,11.03
2019-01-30T09:36:10.414Z,11.33
2019-01-30T09:38:40.697Z,10.63
2019-01-30T09:41:11.454Z,11.30
2019-01-30T09:43:41.737Z,10.60
2019-01-30T09:46:11.992Z,11.30
2019-01-30T09:48:42.253Z,10.90
2019-01-30T09:51:12.792Z,11.47
2019-01-30T09:53:43.609Z,11.70
2019-01-30T09:56:15.511Z,11.73
2019-01-30T09:58:46.296Z,11.83
2019-01-30T10:01:17.262Z,11.50
2019-01-30T10:03:47.838Z,10.90
2019-01-30T10:06:18.050Z,11.23
2019-01-30T10:08:48.672Z,10.97
2019-01-30T10:11:18.781Z,11.30
2019-01-30T10:13:49.287Z,11.70
2019-01-30T10:16:19.577Z,11.43
2019-01-30T10:18:50.149Z,12.57
2019-01-30T10:21:20.520Z,11.90
2019-01-30T10:23:50.738Z,11.90
2019-01-30T10:26:21.203Z,13.63
2019-01-30T10:28:51.451Z,12.83
2019-01-30T10:31:21.998Z,11.90
2019-01-30T10:33:52.246Z,12.93
2019-01-30T10:36:22.463Z,11.77
2019-01-30T10:38:52.687Z,11.97
2019-01-30T10:41:23.273Z,12.57
2019-01-30T10:43:53.597Z,12.97
2019-01-30T10:46:24.244Z,12.13
2019-01-30T10:48:54.566Z,12.07
2019-01-30T10:51:24.878Z,12.27
2019-01-30T10:53:55.183Z,11.87
2019-01-30T10:56:25.472Z,11.67
2019-01-30T10:58:55.843Z,12.30
2019-01-30T11:01:26.417Z,12.50
2019-01-30T11:03:57.713Z,12.30
2019-01-30T11:06:28.790Z,11.97
2019-01-30T11:08:59.189Z,11.40
2019-01-30T11:11:29.875Z,12.23
2019-01-30T11:14:00.232Z,12.90
2019-01-30T11:16:30.982Z,12.70
2019-01-30T11:19:01.700Z,13.67
2019-01-30T11:21:32.127Z,13.60
2019-01-30T11:24:03.424Z,12.73
2019-01-30T11:26:36.378Z,12.37
2019-01-30T11:29:06.049Z,12.90
2019-01-30T11:31:36.478Z,12.43
2019-01-30T11:34:07.897Z,12.57
2019-01-30T11:36:38.427Z,12.50
2019-01-30T11:39:10.284Z,11.27
2019-01-30T11:41:40.594Z,12.00
2019-01-30T11:44:10.910Z,12.10
2019-01-30T11:46:41.362Z,11.67
2019-01-30T11:49:12.124Z,12.17
2019-01-30T11:51:42.505Z,12.10
2019-01-30T11:54:12.909Z,12.07
2019-01-30T11:56:44.000Z,12.70
2019-01-30T11:59:14.764Z,11.93
2019-01-30T12:01:45.188Z,11.67
2019-01-30T12:04:18.158Z,12.13
2019-01-30T12:06:48.648Z,12.27
2019-01-30T12:09:19.087Z,12.37
2019-01-30T12:11:49.991Z,11.13
2019-01-30T12:14:20.215Z,10.30
2019-01-30T12:16:50.745Z,12.33
2019-01-30T12:19:21.151Z,12.07
2019-01-30T12:21:51.629Z,11.73
2019-01-30T12:24:21.960Z,11.33
2019-01-30T12:26:52.209Z,11.70
2019-01-30T12:29:22.756Z,11.23
2019-01-30T12:31:53.042Z,10.90
2019-01-30T12:34:28.305Z,10.97
2019-01-30T12:36:56.397Z,10.93
2019-01-30T12:39:26.665Z,12.27
2019-01-30T12:41:57.324Z,11.97
2019-01-30T12:44:27.769Z,11.13
2019-01-30T12:46:58.129Z,11.13
2019-01-30T12:49:28.784Z,11.77
2019-01-30T12:51:59.749Z,10.53
2019-01-30T12:54:30.136Z,11.33
2019-01-30T12:57:00.545Z,11.47
2019-01-30T12:59:30.991Z,10.93
2019-01-30T13:02:01.481Z,11.17
2019-01-30T13:04:38.595Z,11.23
2019-01-30T13:07:04.039Z,11.30
2019-01-30T13:09:34.740Z,11.27
2019-01-30T13:12:05.643Z,10.80
2019-01-30T13:14:36.066Z,12.13
2019-01-30T13:17:06.626Z,11.00
2019-01-30T13:19:37.453Z,10.67
2019-01-30T13:22:08.112Z,10.50
2019-01-30T13:24:38.603Z,10.30
2019-01-30T13:27:09.142Z,10.13
2019-01-30T13:29:39.562Z,10.57
2019-01-30T13:32:10.011Z,10.13
2019-01-30T13:34:48.812Z,10.20
2019-01-30T13:37:12.738Z,10.53
2019-01-30T13:39:43.117Z,9.73
2019-01-30T13:42:13.925Z,10.67
2019-01-30T13:44:44.434Z,10.07
2019-01-30T13:47:15.238Z,10.53
2019-01-30T13:49:45.768Z,9.87
2019-01-30T13:52:16.175Z,9.70
2019-01-30T13:54:46.586Z,10.40
2019-01-30T13:57:17.277Z,10.17
2019-01-30T13:59:47.555Z,10.50
2019-01-30T14:02:18.055Z,10.97
2019-01-30T14:04:59.118Z,11.27
2019-01-30T14:07:20.938Z,10.80
2019-01-30T14:09:51.780Z,10.50
2019-01-30T14:12:22.212Z,10.20
2019-01-30T14:14:52.574Z,10.70
2019-01-30T14:17:22.927Z,9.80
2019-01-30T14:19:53.822Z,9.87
2019-01-30T14:22:24.579Z,10.07
2019-01-30T14:24:55.286Z,9.60
2019-01-30T14:27:25.651Z,10.27
2019-01-30T14:29:58.298Z,9.67
2019-01-30T14:32:28.613Z,10.17
2019-01-30T14:34:58.858Z,10.20
2019-01-30T14:37:29.354Z,10.03
2019-01-30T14:40:00.040Z,10.50
2019-01-30T14:42:30.484Z,10.17
2019-01-30T14:45:00.823Z,9.83
2019-01-30T14:47:31.359Z,9.50
2019-01-30T14:50:01.935Z,10.17
2019-01-30T14:52:32.327Z,9.30
2019-01-30T14:55:03.081Z,9.57
2019-01-30T14:57:33.844Z,8.93
2019-01-30T15:00:05.635Z,9.70
2019-01-30T15:02:36.423Z,9.77
2019-01-30T15:05:09.797Z,9.30
2019-01-30T15:07:40.056Z,9.10
2019-01-30T15:10:13.126Z,9.37
2019-01-30T15:12:43.494Z,8.70
2019-01-30T15:15:17.041Z,8.50
2019-01-30T15:17:47.548Z,8.53
2019-01-30T15:20:27.259Z,8.90
2019-01-30T15:22:58.480Z,9.37
2019-01-30T15:25:29.569Z,9.03
2019-01-30T15:28:01.369Z,9.80
2019-01-30T15:30:38.538Z,10.63
2019-01-30T15:33:09.388Z,8.27
2019-01-30T15:35:40.234Z,8.83
2019-01-30T15:38:13.620Z,7.87
2019-01-30T15:40:44.229Z,7.40
2019-01-30T15:43:14.655Z,6.47
2019-01-30T15:45:45.407Z,7.70
2019-01-30T15:48:15.893Z,8.33
2019-01-30T15:50:46.349Z,9.57
2019-01-30T15:53:23.187Z,9.20
2019-01-30T15:55:53.691Z,7.30
2019-01-30T15:58:24.462Z,8.87
2019-01-30T16:01:24.623Z,9.50
2019-01-30T16:03:55.028Z,8.40
2019-01-30T16:06:25.477Z,7.20
2019-01-30T16:08:55.809Z,8.00
2019-01-30T16:11:26.567Z,7.60
2019-01-30T16:13:57.099Z,8.00
2019-01-30T16:16:27.439Z,9.50
2019-01-30T16:18:58.236Z,6.80
2019-01-30T16:21:28.512Z,8.07
2019-01-30T16:23:58.866Z,10.20
2019-01-30T16:26:29.328Z,4.00
2019-01-30T16:29:00.479Z,4.40
2019-01-30T16:31:30.945Z,5.00
2019-01-30T16:34:01.592Z,3.00
2019-01-30T16:36:32.069Z,5.17
2019-01-30T16:39:02.494Z,5.03
2019-01-30T16:41:32.817Z,2.97
2019-01-30T16:44:03.353Z,3.60
2019-01-30T16:46:34.073Z,2.83
2019-01-30T16:49:04.889Z,2.00
2019-01-30T16:51:35.303Z,2.27
2019-01-30T16:54:05.862Z,2.10
2019-01-30T16:56:36.307Z,2.33
2019-01-30T16:59:07.410Z,2.43
2019-01-30T17:01:37.783Z,1.80
2019-01-30T17:04:08.065Z,1.50
2019-01-30T17:06:38.281Z,1.90
2019-01-30T17:09:10.206Z,2.00
2019-01-30T17:11:40.560Z,1.70
2019-01-30T17:14:10.769Z,1.60
2019-01-30T17:16:41.068Z,1.80
2019-01-30T17:19:11.542Z,2.10
2019-01-30T17:21:41.908Z,2.00
2019-01-30T17:24:12.121Z,1.70
2019-01-30T17:26:42.681Z,2.33
2019-01-30T17:29:12.884Z,2.13
2019-01-30T17:31:43.198Z,1.93
2019-01-30T17:34:13.757Z,1.60
2019-01-30T17:36:43.960Z,2.20
2019-01-30T17:39:14.415Z,2.47
2019-01-30T17:41:44.700Z,1.90
2019-01-30T17:44:14.815Z,2.10
2019-01-30T17:46:45.104Z,2.10
2019-01-30T17:49:15.293Z,1.90
2019-01-30T17:51:45.667Z,1.47
2019-01-30T17:54:18.206Z,1.53
2019-01-30T17:56:48.248Z,1.30
2019-01-30T17:59:18.576Z,2.00
2019-01-30T18:01:49.139Z,1.70
2019-01-30T18:04:19.678Z,1.80
2019-01-30T18:06:50.081Z,1.40
2019-01-30T18:09:20.604Z,1.50
2019-01-30T18:11:51.223Z,1.30
2019-01-30T18:14:21.725Z,1.33
2019-01-30T18:16:51.982Z,1.63
2019-01-30T18:19:22.299Z,2.20
2019-01-30T18:21:53.023Z,1.80
2019-01-30T18:24:23.420Z,2.00
2019-01-30T18:26:53.742Z,1.83
2019-01-30T18:29:23.962Z,1.83
2019-01-30T18:31:54.565Z,1.60
2019-01-30T18:34:25.097Z,1.70
2019-01-30T18:36:55.770Z,3.00
2019-01-30T18:39:25.942Z,2.03
2019-01-30T18:41:56.580Z,2.50
2019-01-30T18:44:26.793Z,2.20
2019-01-30T18:46:57.159Z,5.03
2019-01-30T18:49:27.461Z,1.77
2019-01-30T18:51:57.798Z,1.60
2019-01-30T18:54:28.490Z,3.67
2019-01-30T18:56:58.612Z,1.87
2019-01-30T18:59:28.744Z,3.60
2019-01-30T19:01:59.029Z,1.60
2019-01-30T19:04:29.236Z,2.20
2019-01-30T19:06:59.778Z,2.20
2019-01-30T19:09:30.242Z,1.63
2019-01-30T19:12:00.468Z,2.33
2019-01-30T19:14:30.604Z,2.00
2019-01-30T19:17:07.743Z,3.60
2019-01-30T19:19:38.518Z,2.00
2019-01-30T19:22:10.315Z,2.47
2019-01-30T19:24:40.735Z,2.63
2019-01-30T19:27:11.407Z,1.87
2019-01-30T19:29:41.637Z,2.50
2019-01-30T19:32:11.992Z,7.33
2019-01-30T19:34:42.537Z,2.80
2019-01-30T19:37:12.879Z,2.70
2019-01-30T19:39:43.441Z,1.83
2019-01-30T19:42:13.627Z,2.30
2019-01-30T19:44:43.783Z,1.80
2019-01-30T19:47:14.134Z,2.20
2019-01-30T19:49:44.366Z,1.83
2019-01-30T19:52:14.502Z,1.90
2019-01-30T19:54:44.757Z,1.40
2019-01-30T19:57:15.520Z,1.90
2019-01-30T19:59:45.680Z,1.73
2019-01-30T20:02:16.076Z,1.63
2019-01-30T20:04:46.220Z,1.60
2019-01-30T20:07:17.313Z,2.00
2019-01-30T20:09:47.539Z,1.90
2019-01-30T20:12:18.150Z,1.57
2019-01-30T20:14:48.527Z,2.10
2019-01-30T20:17:19.028Z,2.07
2019-01-30T20:19:49.245Z,2.20
2019-01-30T20:22:19.596Z,1.90
2019-01-30T20:24:49.876Z,1.73
2019-01-30T20:27:20.489Z,1.87
2019-01-30T20:29:50.652Z,1.87
2019-01-30T20:32:20.974Z,2.13
2019-01-30T20:34:51.102Z,2.17
2019-01-30T20:37:26.288Z,2.20
2019-01-30T20:39:53.381Z,1.90
2019-01-30T20:42:24.115Z,2.23
2019-01-30T20:44:54.385Z,2.90
2019-01-30T20:47:24.704Z,2.50
2019-01-30T20:49:54.998Z,2.40
2019-01-30T20:52:26.747Z,2.40
2019-01-30T20:54:59.866Z,2.27
2019-01-30T20:57:28.812Z,2.17
2019-01-30T20:59:59.028Z,2.73
2019-01-30T21:02:29.516Z,2.77
2019-01-30T21:04:59.722Z,2.90
2019-01-30T21:07:37.073Z,2.17
2019-01-30T21:10:02.467Z,2.47
2019-01-30T21:12:32.808Z,2.83
2019-01-30T21:15:03.520Z,3.03
2019-01-30T21:17:33.733Z,3.30
2019-01-30T21:20:05.093Z,2.70
2019-01-30T21:22:35.608Z,3.43
2019-01-30T21:25:10.158Z,2.67
2019-01-30T21:27:40.530Z,3.50
2019-01-30T21:30:13.965Z,5.47
2019-01-30T21:32:44.172Z,5.73
2019-01-30T21:35:14.533Z,5.30
2019-01-30T21:37:48.931Z,5.43
2019-01-30T21:40:18.263Z,4.33
2019-01-30T21:42:48.793Z,3.20
2019-01-30T21:45:21.341Z,3.17
2019-01-30T21:47:51.990Z,2.87
2019-01-30T21:50:22.629Z,2.93
2019-01-30T21:52:52.858Z,3.43
2019-01-30T21:55:24.697Z,3.10
2019-01-30T21:57:54.988Z,3.50
2019-01-30T22:00:30.039Z,3.60
2019-01-30T22:03:00.411Z,3.37
2019-01-30T22:05:30.794Z,3.63
2019-01-30T22:08:01.641Z,4.10
2019-01-30T22:10:32.084Z,3.93
2019-01-30T22:13:02.385Z,3.70
2019-01-30T22:15:33.237Z,3.80
2019-01-30T22:18:04.040Z,3.60
2019-01-30T22:20:34.392Z,3.47
2019-01-30T22:23:05.568Z,3.60
2019-01-30T22:25:35.934Z,3.80
2019-01-30T22:28:06.893Z,7.23
2019-01-30T22:30:37.550Z,11.53
2019-01-30T22:33:07.946Z,9.43
2019-01-30T22:35:38.233Z,7.30
2019-01-30T22:38:12.683Z,4.23
2019-01-30T22:40:41.033Z,5.27
2019-01-30T22:43:11.726Z,5.00
2019-01-30T22:45:42.984Z,6.90
2019-01-30T22:48:13.235Z,7.30
2019-01-30T22:50:43.560Z,5.00
2019-01-30T22:53:14.114Z,3.80
2019-01-30T22:55:44.425Z,4.07
2019-01-30T22:58:14.679Z,3.87
2019-01-30T23:01:28.602Z,3.83
2019-01-30T23:04:49.699Z,2.77
2019-01-30T23:08:22.645Z,2.50
2019-01-30T23:11:57.542Z,2.43
2019-01-30T23:14:39.326Z,3.13
2019-01-30T23:18:11.899Z,2.37
2019-01-30T23:20:55.124Z,2.60
2019-01-30T23:23:54.605Z,2.57
2019-01-30T23:26:38.171Z,2.70
2019-01-30T23:29:51.848Z,2.73
2019-01-30T23:33:22.172Z,2.40
2019-01-30T23:36:44.555Z,2.47
2019-01-30T23:39:36.493Z,2.53
2019-01-30T23:42:53.617Z,2.57
2019-01-30T23:45:54.326Z,2.50
2019-01-30T23:48:39.336Z,2.40
2019-01-30T23:52:13.162Z,2.07
2019-01-30T23:55:07.784Z,2.00
2019-01-30T23:58:14.051Z,2.17
